To NAV CANADA Home Page Login to a new session Search on AWWS site Feedback and Comments Disclaimer Vers la page française équivalente Tips FAQ What's new on the site To the Forecasts and Observations / NOTAM section To "File a Flight Plan" website Publications and other links Update of the User's profile FIC Telephone Numbers My Weather Data Folder Route Weather Data Regional Weather Data Local Weather Data To the Forecasts and Observations / NOTAM section
Request Generated 05/04/2015 at 16:04:45 UTC . Weather information available at that time is displayed.

METAR/TAF

MONTREAL/ST-HUBERT/QC    (show WxCam)

METAR CYHU 041600Z AUTO 25014KT 9SM CLR 27/05 A2999 RMK SLP155
DENSITY ALT 1400FT=
METAR CYHU 041500Z AUTO 23011G17KT 170V240 9SM CLR 25/06 A3001 RMK
SLP163 DENSITY ALT 1200FT=
METAR CYHU 041400Z AUTO 22013KT 9SM CLR 22/04 A3003 RMK SLP169
DENSITY ALT 800FT=

TAF CYHU 041144Z 0412/0512 17005KT P6SM SCT100
FM041500 23010G20KT P6SM SCT090
BECMG 0417/0419 23015G30KT
FM042200 23017G27KT P6SM BKN080
BECMG 0422/0424 23020G35KT
FM050200 25015G25KT 6SM -SHRA BR OVC030
FM050500 29010G20KT P6SM BKN040
FM050800 32008KT P6SM SCT060
RMK FCST BASED ON AUTO OBS. NXT FCST BY 041800Z=
Your time UTC time
Weather data provided by Environment Canada and NAV CANADA